sensor_id;sensor_type;location;lat;lon;timestamp;pressure;altitude;pressure_sealevel;temperature;humidity
7918;BME280;4004;42.624;23.386;2022-12-10T00:01:33;93533.28;;;8.95;100.00
7918;BME280;4004;42.624;23.386;2022-12-10T00:04:00;93533.22;;;8.91;100.00
7918;BME280;4004;42.624;23.386;2022-12-10T00:06:30;93528.69;;;8.95;100.00
7918;BME280;4004;42.624;23.386;2022-12-10T00:08:58;93530.91;;;8.89;100.00
7918;BME280;4004;42.624;23.386;2022-12-10T00:11:26;93515.09;;;8.84;100.00
7918;BME280;4004;42.624;23.386;2022-12-10T00:13:54;93507.88;;;8.85;100.00
7918;BME280;4004;42.624;23.386;2022-12-10T00:16:22;93506.53;;;8.98;100.00
7918;BME280;4004;42.624;23.386;2022-12-10T00:18:50;93499.31;;;9.02;100.00
7918;BME280;4004;42.624;23.386;2022-12-10T00:21:19;93496.09;;;8.93;100.00
7918;BME280;4004;42.624;23.386;2022-12-10T00:23:46;93500.81;;;9.00;100.00
7918;BME280;4004;42.624;23.386;2022-12-10T00:26:15;93489.31;;;8.99;100.00
7918;BME280;4004;42.624;23.386;2022-12-10T00:28:45;93499.69;;;9.01;100.00
7918;BME280;4004;42.624;23.386;2022-12-10T00:31:14;93500.13;;;9.06;100.00
7918;BME280;4004;42.624;23.386;2022-12-10T00:33:41;93476.56;;;8.92;100.00
7918;BME280;4004;42.624;23.386;2022-12-10T00:36:10;93513.13;;;9.04;100.00
7918;BME280;4004;42.624;23.386;2022-12-10T00:38:37;93505.09;;;9.04;100.00
7918;BME280;4004;42.624;23.386;2022-12-10T00:41:05;93515.09;;;9.07;100.00
7918;BME280;4004;42.624;23.386;2022-12-10T00:43:32;93512.88;;;9.13;100.00
7918;BME280;4004;42.624;23.386;2022-12-10T00:46:01;93503.75;;;9.18;100.00
7918;BME280;4004;42.624;23.386;2022-12-10T00:48:28;93502.22;;;9.17;100.00
7918;BME280;4004;42.624;23.386;2022-12-10T00:50:57;93512.94;;;9.17;100.00
7918;BME280;4004;42.624;23.386;2022-12-10T00:53:25;93503.84;;;9.25;100.00
7918;BME280;4004;42.624;23.386;2022-12-10T00:55:52;93502.31;;;9.24;100.00
7918;BME280;4004;42.624;23.386;2022-12-10T00:58:19;93503.84;;;9.25;100.00
7918;BME280;4004;42.624;23.386;2022-12-10T01:00:46;93510.03;;;9.29;100.00
7918;BME280;4004;42.624;23.386;2022-12-10T01:03:15;93474.56;;;9.39;100.00
7918;BME280;4004;42.624;23.386;2022-12-10T01:05:42;93518.59;;;9.38;100.00
7918;BME280;4004;42.624;23.386;2022-12-10T01:08:08;93499.44;;;9.36;100.00
7918;BME280;4004;42.624;23.386;2022-12-10T01:10:35;93515.53;;;9.36;100.00
7918;BME280;4004;42.624;23.386;2022-12-10T01:13:02;93508.44;;;9.24;100.00
7918;BME280;4004;42.624;23.386;2022-12-10T01:15:30;93515.00;;;9.27;100.00
7918;BME280;4004;42.624;23.386;2022-12-10T01:17:56;93513.09;;;9.27;100.00
7918;BME280;4004;42.624;23.386;2022-12-10T01:20:24;93508.16;;;9.29;100.00
7918;BME280;4004;42.624;23.386;2022-12-10T01:22:52;93493.41;;;9.16;100.00
7918;BME280;4004;42.624;23.386;2022-12-10T01:25:18;93496.78;;;9.13;100.00
7918;BME280;4004;42.624;23.386;2022-12-10T01:27:45;93483.38;;;9.13;100.00
7918;BME280;4004;42.624;23.386;2022-12-10T01:30:12;93473.22;;;9.26;100.00
7918;BME280;4004;42.624;23.386;2022-12-10T01:32:39;93480.69;;;9.40;100.00
7918;BME280;4004;42.624;23.386;2022-12-10T01:35:06;93479.78;;;9.59;100.00
7918;BME280;4004;42.624;23.386;2022-12-10T01:37:34;93466.00;;;9.60;100.00
7918;BME280;4004;42.624;23.386;2022-12-10T01:40:01;93481.97;;;9.80;100.00
7918;BME280;4004;42.624;23.386;2022-12-10T01:42:27;93485.75;;;10.09;100.00
7918;BME280;4004;42.624;23.386;2022-12-10T01:45:07;93482.31;;;10.46;100.00
7918;BME280;4004;42.624;23.386;2022-12-10T01:47:35;93485.28;;;10.74;100.00
7918;BME280;4004;42.624;23.386;2022-12-10T01:50:03;93479.41;;;11.10;100.00
7918;BME280;4004;42.624;23.386;2022-12-10T01:52:30;93481.94;;;11.47;100.00
7918;BME280;4004;42.624;23.386;2022-12-10T01:54:58;93481.84;;;12.02;99.86
7918;BME280;4004;42.624;23.386;2022-12-10T01:57:26;93479.59;;;12.26;97.80
7918;BME280;4004;42.624;23.386;2022-12-10T01:59:55;93495.84;;;12.55;95.20
7918;BME280;4004;42.624;23.386;2022-12-10T02:02:34;93487.78;;;12.87;92.69
7918;BME280;4004;42.624;23.386;2022-12-10T02:05:14;93489.72;;;12.94;92.77
7918;BME280;4004;42.624;23.386;2022-12-10T02:07:57;93477.41;;;13.03;90.98
7918;BME280;4004;42.624;23.386;2022-12-10T02:10:39;93483.56;;;13.25;89.35
7918;BME280;4004;42.624;23.386;2022-12-10T02:13:14;93474.69;;;13.36;88.37
7918;BME280;4004;42.624;23.386;2022-12-10T02:15:47;93490.09;;;13.46;87.45
7918;BME280;4004;42.624;23.386;2022-12-10T02:18:19;93485.84;;;13.48;87.96
7918;BME280;4004;42.624;23.386;2022-12-10T02:20:49;93483.56;;;13.40;88.36
7918;BME280;4004;42.624;23.386;2022-12-10T02:23:21;93484.72;;;13.32;89.46
7918;BME280;4004;42.624;23.386;2022-12-10T02:25:54;93473.53;;;13.33;89.41
7918;BME280;4004;42.624;23.386;2022-12-10T02:28:31;93478.94;;;13.33;89.03
7918;BME280;4004;42.624;23.386;2022-12-10T02:31:02;93471.63;;;12.83;90.62
7918;BME280;4004;42.624;23.386;2022-12-10T02:33:31;93465.81;;;12.63;92.16
7918;BME280;4004;42.624;23.386;2022-12-10T02:35:59;93461.16;;;12.32;94.40
7918;BME280;4004;42.624;23.386;2022-12-10T02:38:28;93456.47;;;12.18;95.92
7918;BME280;4004;42.624;23.386;2022-12-10T02:41:00;93449.63;;;12.56;95.15
7918;BME280;4004;42.624;23.386;2022-12-10T02:43:29;93448.09;;;12.70;94.21
7918;BME280;4004;42.624;23.386;2022-12-10T02:45:57;93453.50;;;12.98;92.56
7918;BME280;4004;42.624;23.386;2022-12-10T02:48:27;93450.78;;;13.09;91.78
7918;BME280;4004;42.624;23.386;2022-12-10T02:50:54;93455.44;;;13.05;91.69
7918;BME280;4004;42.624;23.386;2022-12-10T02:53:21;93449.63;;;13.10;91.08
7918;BME280;4004;42.624;23.386;2022-12-10T02:55:56;93452.31;;;13.24;89.73
7918;BME280;4004;42.624;23.386;2022-12-10T02:58:35;93453.44;;;13.27;89.04
7918;BME280;4004;42.624;23.386;2022-12-10T03:01:14;93457.72;;;13.39;88.34
7918;BME280;4004;42.624;23.386;2022-12-10T03:03:50;93465.81;;;13.42;88.13
7918;BME280;4004;42.624;23.386;2022-12-10T03:06:22;93471.97;;;13.46;87.81
7918;BME280;4004;42.624;23.386;2022-12-10T03:08:59;93478.13;;;13.51;87.98
7918;BME280;4004;42.624;23.386;2022-12-10T03:11:27;93461.56;;;13.52;88.19
7918;BME280;4004;42.624;23.386;2022-12-10T03:13:58;93462.72;;;13.47;89.10
7918;BME280;4004;42.624;23.386;2022-12-10T03:16:29;93457.28;;;13.51;89.32
7918;BME280;4004;42.624;23.386;2022-12-10T03:19:01;93455.00;;;13.46;89.04
7918;BME280;4004;42.624;23.386;2022-12-10T03:21:30;93461.94;;;13.51;89.24
7918;BME280;4004;42.624;23.386;2022-12-10T03:23:59;93462.31;;;13.49;89.19
7918;BME280;4004;42.624;23.386;2022-12-10T03:26:27;93457.72;;;13.50;89.49
7918;BME280;4004;42.624;23.386;2022-12-10T03:28:57;93454.25;;;13.42;89.77
7918;BME280;4004;42.624;23.386;2022-12-10T03:31:26;93439.63;;;13.32;90.41
7918;BME280;4004;42.624;23.386;2022-12-10T03:33:53;93434.97;;;13.22;91.32
7918;BME280;4004;42.624;23.386;2022-12-10T03:36:22;93426.88;;;13.25;90.73
7918;BME280;4004;42.624;23.386;2022-12-10T03:38:51;93426.09;;;13.21;91.05
7918;BME280;4004;42.624;23.386;2022-12-10T03:41:18;93393.34;;;12.98;89.33
7918;BME280;4004;42.624;23.386;2022-12-10T03:43:52;93440.38;;;13.29;89.59
7918;BME280;4004;42.624;23.386;2022-12-10T03:46:19;93424.56;;;13.31;89.69
7918;BME280;4004;42.624;23.386;2022-12-10T03:48:46;93434.19;;;13.39;88.77
7918;BME280;4004;42.624;23.386;2022-12-10T03:51:13;93430.34;;;13.37;88.15
7918;BME280;4004;42.624;23.386;2022-12-10T03:53:42;93444.59;;;13.48;87.64
7918;BME280;4004;42.624;23.386;2022-12-10T03:56:09;93438.03;;;13.42;88.20
7918;BME280;4004;42.624;23.386;2022-12-10T03:58:36;93417.63;;;13.41;87.41
7918;BME280;4004;42.624;23.386;2022-12-10T04:01:03;93410.28;;;13.38;87.75
7918;BME280;4004;42.624;23.386;2022-12-10T04:03:29;93412.94;;;13.45;86.57
7918;BME280;4004;42.624;23.386;2022-12-10T04:06:01;93429.13;;;13.56;85.83
7918;BME280;4004;42.624;23.386;2022-12-10T04:08:28;93411.03;;;13.38;87.64
7918;BME280;4004;42.624;23.386;2022-12-10T04:11:02;93415.28;;;13.39;88.19
7918;BME280;4004;42.624;23.386;2022-12-10T04:13:31;93410.25;;;13.48;87.24
7918;BME280;4004;42.624;23.386;2022-12-10T04:16:15;93399.81;;;13.51;87.14
7918;BME280;4004;42.624;23.386;2022-12-10T04:18:55;93402.94;;;13.45;87.71
7918;BME280;4004;42.624;23.386;2022-12-10T04:21:22;93401.38;;;13.48;87.91
7918;BME280;4004;42.624;23.386;2022-12-10T04:24:08;93392.88;;;13.57;87.29
7918;BME280;4004;42.624;23.386;2022-12-10T04:27:03;93398.25;;;13.60;86.74
7918;BME280;4004;42.624;23.386;2022-12-10T04:29:30;93393.66;;;13.50;87.06
7918;BME280;4004;42.624;23.386;2022-12-10T04:31:58;93407.53;;;13.56;87.05
7918;BME280;4004;42.624;23.386;2022-12-10T04:34:25;93414.81;;;13.62;85.82
7918;BME280;4004;42.624;23.386;2022-12-10T04:36:52;93425.25;;;13.67;86.41
7918;BME280;4004;42.624;23.386;2022-12-10T04:39:19;93415.97;;;13.65;86.52
7918;BME280;4004;42.624;23.386;2022-12-10T04:41:47;93429.09;;;13.66;86.72
7918;BME280;4004;42.624;23.386;2022-12-10T04:44:15;93446.91;;;13.24;89.89
7918;BME280;4004;42.624;23.386;2022-12-10T04:46:42;93438.84;;;12.53;95.29
7918;BME280;4004;42.624;23.386;2022-12-10T04:49:09;93455.72;;;12.21;98.74
7918;BME280;4004;42.624;23.386;2022-12-10T04:51:36;93447.06;;;11.76;100.00
7918;BME280;4004;42.624;23.386;2022-12-10T04:54:04;93444.72;;;11.64;100.00
7918;BME280;4004;42.624;23.386;2022-12-10T04:56:31;93433.09;;;11.45;100.00
7918;BME280;4004;42.624;23.386;2022-12-10T04:58:58;93450.63;;;11.17;100.00
7918;BME280;4004;42.624;23.386;2022-12-10T05:01:27;93432.16;;;11.16;100.00
7918;BME280;4004;42.624;23.386;2022-12-10T05:03:57;93436.38;;;11.10;100.00
7918;BME280;4004;42.624;23.386;2022-12-10T05:06:24;93437.53;;;11.12;100.00
7918;BME280;4004;42.624;23.386;2022-12-10T05:08:52;93430.59;;;11.08;100.00
7918;BME280;4004;42.624;23.386;2022-12-10T05:11:21;93444.75;;;11.01;100.00
7918;BME280;4004;42.624;23.386;2022-12-10T05:13:48;93435.84;;;10.93;100.00
7918;BME280;4004;42.624;23.386;2022-12-10T05:16:17;93420.44;;;10.83;100.00
7918;BME280;4004;42.624;23.386;2022-12-10T05:18:46;93422.38;;;10.86;100.00
7918;BME280;4004;42.624;23.386;2022-12-10T05:21:15;93431.19;;;10.87;100.00
7918;BME280;4004;42.624;23.386;2022-12-10T05:23:45;93420.03;;;10.81;100.00
7918;BME280;4004;42.624;23.386;2022-12-10T05:26:13;93412.72;;;10.82;100.00
7918;BME280;4004;42.624;23.386;2022-12-10T05:28:42;93410.47;;;10.91;100.00
7918;BME280;4004;42.624;23.386;2022-12-10T05:31:11;93411.94;;;10.77;100.00
7918;BME280;4004;42.624;23.386;2022-12-10T05:33:38;93421.78;;;10.63;100.00
7918;BME280;4004;42.624;23.386;2022-12-10T05:36:07;93411.59;;;10.38;100.00
7918;BME280;4004;42.624;23.386;2022-12-10T05:38:36;93434.72;;;10.46;100.00
7918;BME280;4004;42.624;23.386;2022-12-10T05:41:03;93437.34;;;10.39;100.00
7918;BME280;4004;42.624;23.386;2022-12-10T05:43:31;93423.88;;;10.35;100.00
7918;BME280;4004;42.624;23.386;2022-12-10T05:46:01;93429.72;;;10.45;100.00
7918;BME280;4004;42.624;23.386;2022-12-10T05:48:28;93430.13;;;10.47;100.00
7918;BME280;4004;42.624;23.386;2022-12-10T05:50:55;93435.47;;;10.43;100.00
7918;BME280;4004;42.624;23.386;2022-12-10T05:53:24;93424.75;;;10.47;100.00
7918;BME280;4004;42.624;23.386;2022-12-10T05:55:59;93442.41;;;10.48;100.00
7918;BME280;4004;42.624;23.386;2022-12-10T05:58:27;93443.13;;;10.45;100.00
7918;BME280;4004;42.624;23.386;2022-12-10T06:00:54;93435.47;;;10.43;100.00
7918;BME280;4004;42.624;23.386;2022-12-10T06:03:20;93451.19;;;10.41;100.00
7918;BME280;4004;42.624;23.386;2022-12-10T06:05:47;93456.13;;;10.35;100.00
7918;BME280;4004;42.624;23.386;2022-12-10T06:08:14;93439.19;;;10.31;100.00
7918;BME280;4004;42.624;23.386;2022-12-10T06:10:42;93450.75;;;10.35;100.00
7918;BME280;4004;42.624;23.386;2022-12-10T06:13:09;93447.84;;;10.17;100.00
7918;BME280;4004;42.624;23.386;2022-12-10T06:15:38;93445.63;;;10.23;100.00
7918;BME280;4004;42.624;23.386;2022-12-10T06:18:05;93451.72;;;10.20;100.00
7918;BME280;4004;42.624;23.386;2022-12-10T06:20:32;93443.94;;;10.08;100.00
7918;BME280;4004;42.624;23.386;2022-12-10T06:22:59;93438.91;;;10.03;100.00
7918;BME280;4004;42.624;23.386;2022-12-10T06:25:26;93441.25;;;10.08;100.00
7918;BME280;4004;42.624;23.386;2022-12-10T06:27:54;93461.63;;;10.12;100.00
7918;BME280;4004;42.624;23.386;2022-12-10T06:30:20;93443.53;;;10.06;100.00
7918;BME280;4004;42.624;23.386;2022-12-10T06:32:47;93455.88;;;10.14;100.00
7918;BME280;4004;42.624;23.386;2022-12-10T06:35:14;93452.78;;;10.12;100.00
7918;BME280;4004;42.624;23.386;2022-12-10T06:37:41;93448.25;;;10.16;100.00
7918;BME280;4004;42.624;23.386;2022-12-10T06:40:08;93454.31;;;10.13;100.00
7918;BME280;4004;42.624;23.386;2022-12-10T06:42:34;93437.09;;;10.14;100.00
7918;BME280;4004;42.624;23.386;2022-12-10T06:45:03;93424.13;;;10.23;100.00
7918;BME280;4004;42.624;23.386;2022-12-10T06:47:30;93430.91;;;10.13;100.00
7918;BME280;4004;42.624;23.386;2022-12-10T06:49:57;93436.81;;;10.26;100.00
7918;BME280;4004;42.624;23.386;2022-12-10T06:52:24;93459.41;;;10.22;100.00
7918;BME280;4004;42.624;23.386;2022-12-10T06:54:51;93436.75;;;10.19;100.00
7918;BME280;4004;42.624;23.386;2022-12-10T06:57:19;93442.28;;;10.33;100.00
7918;BME280;4004;42.624;23.386;2022-12-10T06:59:46;93453.88;;;10.41;100.00
7918;BME280;4004;42.624;23.386;2022-12-10T07:02:14;93442.72;;;10.39;100.00
7918;BME280;4004;42.624;23.386;2022-12-10T07:04:41;93466.19;;;10.46;100.00
7918;BME280;4004;42.624;23.386;2022-12-10T07:07:07;93460.06;;;10.49;100.00
7918;BME280;4004;42.624;23.386;2022-12-10T07:09:34;93465.84;;;10.51;100.00
7918;BME280;4004;42.624;23.386;2022-12-10T07:12:01;93470.94;;;10.60;100.00
7918;BME280;4004;42.624;23.386;2022-12-10T07:14:28;93464.75;;;10.55;100.00
7918;BME280;4004;42.624;23.386;2022-12-10T07:16:55;93465.91;;;10.54;100.00
7918;BME280;4004;42.624;23.386;2022-12-10T07:19:23;93441.66;;;10.51;100.00
7918;BME280;4004;42.624;23.386;2022-12-10T07:21:50;93470.09;;;10.52;100.00
7918;BME280;4004;42.624;23.386;2022-12-10T07:24:18;93454.69;;;10.49;100.00
7918;BME280;4004;42.624;23.386;2022-12-10T07:26:45;93432.34;;;10.37;100.00
7918;BME280;4004;42.624;23.386;2022-12-10T07:29:13;93441.59;;;10.44;100.00
7918;BME280;4004;42.624;23.386;2022-12-10T07:31:41;93434.66;;;10.39;100.00
7918;BME280;4004;42.624;23.386;2022-12-10T07:34:09;93417.03;;;10.42;100.00
7918;BME280;4004;42.624;23.386;2022-12-10T07:36:37;93427.81;;;10.45;100.00
7918;BME280;4004;42.624;23.386;2022-12-10T07:39:06;93421.28;;;10.43;100.00
7918;BME280;4004;42.624;23.386;2022-12-10T07:41:33;93420.91;;;10.48;100.00
7918;BME280;4004;42.624;23.386;2022-12-10T07:44:00;93408.63;;;10.47;100.00
7918;BME280;4004;42.624;23.386;2022-12-10T07:46:29;93424.13;;;10.64;100.00
7918;BME280;4004;42.624;23.386;2022-12-10T07:48:58;93430.25;;;10.61;100.00
7918;BME280;4004;42.624;23.386;2022-12-10T07:51:26;93437.09;;;10.55;100.00
7918;BME280;4004;42.624;23.386;2022-12-10T07:53:54;93433.34;;;10.67;100.00
7918;BME280;4004;42.624;23.386;2022-12-10T07:56:22;93434.47;;;10.62;100.00
7918;BME280;4004;42.624;23.386;2022-12-10T07:58:50;93421.47;;;10.71;100.00
7918;BME280;4004;42.624;23.386;2022-12-10T08:01:19;93413.84;;;10.77;100.00
7918;BME280;4004;42.624;23.386;2022-12-10T08:03:47;93392.97;;;10.60;100.00
7918;BME280;4004;42.624;23.386;2022-12-10T08:06:16;93404.31;;;10.87;100.00
7918;BME280;4004;42.624;23.386;2022-12-10T08:08:44;93407.34;;;10.82;100.00
7918;BME280;4004;42.624;23.386;2022-12-10T08:11:13;93422.78;;;10.92;100.00
7918;BME280;4004;42.624;23.386;2022-12-10T08:13:41;93397.47;;;10.96;100.00
7918;BME280;4004;42.624;23.386;2022-12-10T08:16:11;93411.34;;;11.09;100.00
7918;BME280;4004;42.624;23.386;2022-12-10T08:18:38;93409.13;;;11.22;100.00
7918;BME280;4004;42.624;23.386;2022-12-10T08:21:06;93410.63;;;11.12;100.00
7918;BME280;4004;42.624;23.386;2022-12-10T08:23:34;93398.66;;;11.06;100.00
7918;BME280;4004;42.624;23.386;2022-12-10T08:26:03;93381.88;;;11.24;100.00
7918;BME280;4004;42.624;23.386;2022-12-10T08:28:31;93378.41;;;11.23;100.00
7918;BME280;4004;42.624;23.386;2022-12-10T08:30:58;93375.34;;;11.28;100.00
7918;BME280;4004;42.624;23.386;2022-12-10T08:33:25;93374.59;;;11.31;100.00
7918;BME280;4004;42.624;23.386;2022-12-10T08:35:52;93410.00;;;11.37;100.00
7918;BME280;4004;42.624;23.386;2022-12-10T08:38:18;93416.06;;;11.27;100.00
7918;BME280;4004;42.624;23.386;2022-12-10T08:40:45;93386.50;;;11.30;100.00
7918;BME280;4004;42.624;23.386;2022-12-10T08:43:12;93363.88;;;11.42;100.00
7918;BME280;4004;42.624;23.386;2022-12-10T08:45:40;93362.78;;;11.57;100.00
7918;BME280;4004;42.624;23.386;2022-12-10T08:48:06;93364.34;;;11.66;100.00
7918;BME280;4004;42.624;23.386;2022-12-10T08:50:33;93360.53;;;11.77;100.00
7918;BME280;4004;42.624;23.386;2022-12-10T08:53:00;93353.63;;;11.83;100.00
7918;BME280;4004;42.624;23.386;2022-12-10T08:55:26;93344.06;;;11.90;100.00
7918;BME280;4004;42.624;23.386;2022-12-10T08:57:53;93344.47;;;12.06;100.00
7918;BME280;4004;42.624;23.386;2022-12-10T09:00:20;93357.94;;;12.24;100.00
7918;BME280;4004;42.624;23.386;2022-12-10T09:02:48;93357.56;;;12.29;100.00
7918;BME280;4004;42.624;23.386;2022-12-10T09:05:15;93365.63;;;12.29;100.00
7918;BME280;4004;42.624;23.386;2022-12-10T09:07:42;93374.91;;;12.28;100.00
7918;BME280;4004;42.624;23.386;2022-12-10T09:10:09;93349.47;;;12.22;100.00
7918;BME280;4004;42.624;23.386;2022-12-10T09:12:36;93327.91;;;12.04;100.00
7918;BME280;4004;42.624;23.386;2022-12-10T09:15:04;93347.16;;;11.92;100.00
7918;BME280;4004;42.624;23.386;2022-12-10T09:17:31;93330.53;;;11.79;100.00
7918;BME280;4004;42.624;23.386;2022-12-10T09:19:59;93337.47;;;11.87;100.00
7918;BME280;4004;42.624;23.386;2022-12-10T09:22:26;93331.72;;;11.96;100.00
7918;BME280;4004;42.624;23.386;2022-12-10T09:24:52;93325.59;;;11.99;100.00
7918;BME280;4004;42.624;23.386;2022-12-10T09:27:19;93352.91;;;11.97;100.00
7918;BME280;4004;42.624;23.386;2022-12-10T09:29:46;93338.28;;;11.91;100.00
7918;BME280;4004;42.624;23.386;2022-12-10T09:32:13;93312.13;;;11.99;100.00
7918;BME280;4004;42.624;23.386;2022-12-10T09:34:40;93317.13;;;12.00;100.00
7918;BME280;4004;42.624;23.386;2022-12-10T09:37:08;93316.75;;;11.98;100.00
7918;BME280;4004;42.624;23.386;2022-12-10T09:39:35;93315.59;;;12.14;100.00
7918;BME280;4004;42.624;23.386;2022-12-10T09:42:12;93309.44;;;12.28;100.00
7918;BME280;4004;42.624;23.386;2022-12-10T09:44:48;93300.22;;;12.21;100.00
7918;BME280;4004;42.624;23.386;2022-12-10T09:47:17;93302.88;;;12.36;100.00
7918;BME280;4004;42.624;23.386;2022-12-10T09:49:54;93307.53;;;12.32;100.00
7918;BME280;4004;42.624;23.386;2022-12-10T09:52:26;93305.59;;;12.32;100.00
7918;BME280;4004;42.624;23.386;2022-12-10T09:54:56;93292.50;;;12.38;100.00
7918;BME280;4004;42.624;23.386;2022-12-10T09:57:28;93299.03;;;12.44;100.00
7918;BME280;4004;42.624;23.386;2022-12-10T09:59:59;93293.25;;;12.31;100.00
7918;BME280;4004;42.624;23.386;2022-12-10T10:02:29;93296.34;;;12.19;100.00
7918;BME280;4004;42.624;23.386;2022-12-10T10:05:01;93293.25;;;12.31;100.00
7918;BME280;4004;42.624;23.386;2022-12-10T10:07:36;93294.41;;;12.37;100.00
7918;BME280;4004;42.624;23.386;2022-12-10T10:10:07;93289.03;;;12.44;100.00
7918;BME280;4004;42.624;23.386;2022-12-10T10:12:39;93278.22;;;12.55;100.00
7918;BME280;4004;42.624;23.386;2022-12-10T10:15:13;93282.81;;;12.69;100.00
7918;BME280;4004;42.624;23.386;2022-12-10T10:17:42;93294.34;;;12.84;100.00
7918;BME280;4004;42.624;23.386;2022-12-10T10:20:12;93295.53;;;12.83;100.00
7918;BME280;4004;42.624;23.386;2022-12-10T10:22:40;93299.72;;;12.91;100.00
7918;BME280;4004;42.624;23.386;2022-12-10T10:25:13;93287.38;;;12.94;100.00
7918;BME280;4004;42.624;23.386;2022-12-10T10:27:40;93255.84;;;12.76;100.00
7918;BME280;4004;42.624;23.386;2022-12-10T10:30:14;93176.22;;;12.36;100.00
7918;BME280;4004;42.624;23.386;2022-12-10T10:32:48;93267.03;;;12.78;100.00
7918;BME280;4004;42.624;23.386;2022-12-10T10:35:25;93267.72;;;12.97;100.00
7918;BME280;4004;42.624;23.386;2022-12-10T10:37:56;93268.09;;;12.95;100.00
7918;BME280;4004;42.624;23.386;2022-12-10T10:40:27;93262.28;;;13.11;100.00
7918;BME280;4004;42.624;23.386;2022-12-10T10:42:56;93191.84;;;12.88;100.00
7918;BME280;4004;42.624;23.386;2022-12-10T10:45:36;93238.31;;;13.27;100.00
7918;BME280;4004;42.624;23.386;2022-12-10T10:48:09;93242.88;;;13.41;100.00
7918;BME280;4004;42.624;23.386;2022-12-10T10:50:38;93236.63;;;13.59;100.00
7918;BME280;4004;42.624;23.386;2022-12-10T10:53:30;93251.25;;;13.61;100.00
7918;BME280;4004;42.624;23.386;2022-12-10T10:56:01;93256.16;;;13.77;100.00
7918;BME280;4004;42.624;23.386;2022-12-10T10:58:32;93222.88;;;13.91;100.00
7918;BME280;4004;42.624;23.386;2022-12-10T11:01:00;93207.94;;;13.76;100.00
7918;BME280;4004;42.624;23.386;2022-12-10T11:03:29;93231.03;;;13.84;100.00
7918;BME280;4004;42.624;23.386;2022-12-10T11:05:58;93228.31;;;13.87;100.00
7918;BME280;4004;42.624;23.386;2022-12-10T11:08:27;93235.19;;;13.99;100.00
7918;BME280;4004;42.624;23.386;2022-12-10T11:11:01;93193.44;;;14.04;100.00
7918;BME280;4004;42.624;23.386;2022-12-10T11:13:30;93206.72;;;13.87;100.00
7918;BME280;4004;42.624;23.386;2022-12-10T11:16:00;93226.00;;;13.86;100.00
7918;BME280;4004;42.624;23.386;2022-12-10T11:18:31;93208.16;;;13.99;100.00
7918;BME280;4004;42.624;23.386;2022-12-10T11:21:01;93171.06;;;14.03;100.00
7918;BME280;4004;42.624;23.386;2022-12-10T11:23:30;93178.81;;;14.01;100.00
7918;BME280;4004;42.624;23.386;2022-12-10T11:26:05;93162.97;;;14.00;100.00
7918;BME280;4004;42.624;23.386;2022-12-10T11:28:46;93151.78;;;14.01;100.00
7918;BME280;4004;42.624;23.386;2022-12-10T11:31:33;93164.47;;;14.04;100.00
7918;BME280;4004;42.624;23.386;2022-12-10T11:34:10;93163.94;;;14.20;100.00
7918;BME280;4004;42.624;23.386;2022-12-10T11:36:49;93164.25;;;14.29;100.00
7918;BME280;4004;42.624;23.386;2022-12-10T11:39:33;93172.69;;;14.35;100.00
7918;BME280;4004;42.624;23.386;2022-12-10T11:42:11;93173.41;;;14.39;100.00
7918;BME280;4004;42.624;23.386;2022-12-10T11:44:47;93159.09;;;14.42;100.00
7918;BME280;4004;42.624;23.386;2022-12-10T11:47:26;93168.28;;;14.52;100.00
7918;BME280;4004;42.624;23.386;2022-12-10T11:50:07;93172.88;;;14.51;100.00
7918;BME280;4004;42.624;23.386;2022-12-10T11:52:46;93160.19;;;14.48;100.00
7918;BME280;4004;42.624;23.386;2022-12-10T11:55:27;93158.66;;;14.47;100.00
7918;BME280;4004;42.624;23.386;2022-12-10T11:58:14;93145.53;;;14.46;100.00
7918;BME280;4004;42.624;23.386;2022-12-10T12:00:52;93159.38;;;14.51;100.00
7918;BME280;4004;42.624;23.386;2022-12-10T12:03:40;93152.38;;;14.58;100.00
7918;BME280;4004;42.624;23.386;2022-12-10T12:06:27;93144.44;;;14.40;100.00
7918;BME280;4004;42.624;23.386;2022-12-10T12:09:02;93150.78;;;14.22;100.00
7918;BME280;4004;42.624;23.386;2022-12-10T12:11:47;93139.94;;;14.26;100.00
7918;BME280;4004;42.624;23.386;2022-12-10T12:14:21;93153.03;;;14.31;100.00
7918;BME280;4004;42.624;23.386;2022-12-10T12:16:54;93153.44;;;14.29;100.00
7918;BME280;4004;42.624;23.386;2022-12-10T12:19:30;93144.25;;;14.20;100.00
7918;BME280;4004;42.624;23.386;2022-12-10T12:22:02;93130.38;;;14.18;100.00
7918;BME280;4004;42.624;23.386;2022-12-10T12:24:35;93134.25;;;14.17;100.00
7918;BME280;4004;42.624;23.386;2022-12-10T12:27:08;93130.47;;;14.07;100.00
7918;BME280;4004;42.624;23.386;2022-12-10T12:29:44;93125.81;;;14.11;100.00
7918;BME280;4004;42.624;23.386;2022-12-10T12:32:17;93131.25;;;14.07;100.00
7918;BME280;4004;42.624;23.386;2022-12-10T12:34:50;93106.88;;;14.15;100.00
7918;BME280;4004;42.624;23.386;2022-12-10T12:37:21;93107.66;;;14.12;100.00
7918;BME280;4004;42.624;23.386;2022-12-10T12:39:56;93083.66;;;13.83;100.00
7918;BME280;4004;42.624;23.386;2022-12-10T12:42:30;93106.97;;;14.04;100.00
7918;BME280;4004;42.624;23.386;2022-12-10T12:45:03;93087.28;;;14.03;100.00
7918;BME280;4004;42.624;23.386;2022-12-10T12:47:39;93074.56;;;14.00;100.00
7918;BME280;4004;42.624;23.386;2022-12-10T12:50:23;93073.41;;;14.01;100.00
7918;BME280;4004;42.624;23.386;2022-12-10T12:52:53;93073.34;;;14.05;100.00
7918;BME280;4004;42.624;23.386;2022-12-10T12:55:28;93058.34;;;14.00;100.00
7918;BME280;4004;42.624;23.386;2022-12-10T12:58:09;93064.91;;;14.03;100.00
7918;BME280;4004;42.624;23.386;2022-12-10T13:00:40;93077.16;;;14.11;100.00
7918;BME280;4004;42.624;23.386;2022-12-10T13:03:19;93062.53;;;14.08;100.00
7918;BME280;4004;42.624;23.386;2022-12-10T13:05:48;93067.16;;;14.08;100.00
7918;BME280;4004;42.624;23.386;2022-12-10T13:08:24;93064.41;;;14.12;100.00
7918;BME280;4004;42.624;23.386;2022-12-10T13:10:53;93067.19;;;14.04;100.00
7918;BME280;4004;42.624;23.386;2022-12-10T13:13:27;93066.09;;;13.98;100.00
7918;BME280;4004;42.624;23.386;2022-12-10T13:15:56;93034.94;;;13.90;100.00
7918;BME280;4004;42.624;23.386;2022-12-10T13:18:35;93060.88;;;13.80;100.00
7918;BME280;4004;42.624;23.386;2022-12-10T13:21:28;93081.06;;;13.68;100.00